sensor_id;sensor_type;location;lat;lon;timestamp;pressure;altitude;pressure_sealevel;temperature;humidity
50065;BME280;64524;47.848;-122.338;2022-12-18T00:01:21;101503.34;;;4.25;100.00
50065;BME280;64524;47.848;-122.338;2022-12-18T00:03:50;101497.73;;;4.26;100.00
50065;BME280;64524;47.848;-122.338;2022-12-18T00:06:23;101496.89;;;4.26;100.00
50065;BME280;64524;47.848;-122.338;2022-12-18T00:09:03;101496.81;;;4.28;100.00
50065;BME280;64524;47.848;-122.338;2022-12-18T00:11:32;101491.21;;;4.30;100.00
50065;BME280;64524;47.848;-122.338;2022-12-18T00:14:00;101486.36;;;4.32;100.00
50065;BME280;64524;47.848;-122.338;2022-12-18T00:16:29;101487.08;;;4.32;100.00
50065;BME280;64524;47.848;-122.338;2022-12-18T00:19:00;101488.27;;;4.33;100.00
50065;BME280;64524;47.848;-122.338;2022-12-18T00:21:31;101487.65;;;4.34;100.00
50065;BME280;64524;47.848;-122.338;2022-12-18T00:24:02;101484.48;;;4.35;100.00
50065;BME280;64524;47.848;-122.338;2022-12-18T00:26:33;101480.55;;;4.36;100.00
50065;BME280;64524;47.848;-122.338;2022-12-18T00:29:06;101480.08;;;4.37;100.00
50065;BME280;64524;47.848;-122.338;2022-12-18T00:31:35;101474.88;;;4.35;100.00
50065;BME280;64524;47.848;-122.338;2022-12-18T00:34:08;101472.77;;;4.35;100.00
50065;BME280;64524;47.848;-122.338;2022-12-18T00:36:38;101473.16;;;4.35;100.00
50065;BME280;64524;47.848;-122.338;2022-12-18T00:39:07;101468.23;;;4.36;100.00
50065;BME280;64524;47.848;-122.338;2022-12-18T00:41:38;101465.00;;;4.37;100.00
50065;BME280;64524;47.848;-122.338;2022-12-18T00:44:26;101462.02;;;4.36;100.00
50065;BME280;64524;47.848;-122.338;2022-12-18T00:46:58;101456.88;;;4.36;100.00
50065;BME280;64524;47.848;-122.338;2022-12-18T00:49:28;101453.23;;;4.35;100.00
50065;BME280;64524;47.848;-122.338;2022-12-18T00:52:01;101451.36;;;4.35;100.00
50065;BME280;64524;47.848;-122.338;2022-12-18T00:54:29;101454.05;;;4.34;100.00
50065;BME280;64524;47.848;-122.338;2022-12-18T00:56:58;101452.23;;;4.32;100.00
50065;BME280;64524;47.848;-122.338;2022-12-18T00:59:27;101453.88;;;4.30;100.00
50065;BME280;64524;47.848;-122.338;2022-12-18T01:01:57;101451.75;;;4.29;100.00
50065;BME280;64524;47.848;-122.338;2022-12-18T01:04:26;101450.38;;;4.29;100.00
50065;BME280;64524;47.848;-122.338;2022-12-18T01:06:54;101448.35;;;4.30;100.00
50065;BME280;64524;47.848;-122.338;2022-12-18T01:09:25;101451.55;;;4.29;100.00
50065;BME280;64524;47.848;-122.338;2022-12-18T01:11:57;101451.45;;;4.26;100.00
50065;BME280;64524;47.848;-122.338;2022-12-18T01:14:26;101445.48;;;4.24;100.00
50065;BME280;64524;47.848;-122.338;2022-12-18T01:16:55;101439.27;;;4.23;100.00
50065;BME280;64524;47.848;-122.338;2022-12-18T01:19:23;101438.75;;;4.23;100.00
50065;BME280;64524;47.848;-122.338;2022-12-18T01:21:51;101437.00;;;4.22;100.00
50065;BME280;64524;47.848;-122.338;2022-12-18T01:24:23;101441.91;;;4.20;100.00
50065;BME280;64524;47.848;-122.338;2022-12-18T01:26:51;101438.73;;;4.19;100.00
50065;BME280;64524;47.848;-122.338;2022-12-18T01:29:20;101436.42;;;4.17;100.00
50065;BME280;64524;47.848;-122.338;2022-12-18T01:31:48;101431.96;;;4.14;100.00
50065;BME280;64524;47.848;-122.338;2022-12-18T01:34:17;101437.19;;;4.12;100.00
50065;BME280;64524;47.848;-122.338;2022-12-18T01:36:49;101433.50;;;4.10;100.00
50065;BME280;64524;47.848;-122.338;2022-12-18T01:39:20;101434.86;;;4.10;100.00
50065;BME280;64524;47.848;-122.338;2022-12-18T01:41:48;101435.74;;;4.10;100.00
50065;BME280;64524;47.848;-122.338;2022-12-18T01:45:35;101434.02;;;4.10;100.00
50065;BME280;64524;47.848;-122.338;2022-12-18T01:48:06;101426.54;;;4.08;100.00
50065;BME280;64524;47.848;-122.338;2022-12-18T01:50:36;101419.42;;;4.06;100.00
50065;BME280;64524;47.848;-122.338;2022-12-18T01:53:17;101420.41;;;4.06;100.00
50065;BME280;64524;47.848;-122.338;2022-12-18T01:55:53;101420.23;;;4.06;100.00
50065;BME280;64524;47.848;-122.338;2022-12-18T01:58:30;101417.48;;;4.06;100.00
50065;BME280;64524;47.848;-122.338;2022-12-18T02:01:09;101415.54;;;4.04;100.00
50065;BME280;64524;47.848;-122.338;2022-12-18T02:03:40;101411.54;;;4.03;100.00
50065;BME280;64524;47.848;-122.338;2022-12-18T02:06:28;101409.32;;;4.03;100.00
50065;BME280;64524;47.848;-122.338;2022-12-18T02:09:10;101406.05;;;4.03;100.00
50065;BME280;64524;47.848;-122.338;2022-12-18T02:12:04;101399.74;;;4.03;100.00
50065;BME280;64524;47.848;-122.338;2022-12-18T02:14:45;101395.83;;;4.04;100.00
50065;BME280;64524;47.848;-122.338;2022-12-18T02:17:23;101391.05;;;4.04;100.00
50065;BME280;64524;47.848;-122.338;2022-12-18T02:25:35;101383.45;;;4.03;100.00
50065;BME280;64524;47.848;-122.338;2022-12-18T02:28:13;101385.17;;;4.04;100.00
50065;BME280;64524;47.848;-122.338;2022-12-18T02:30:47;101385.85;;;4.03;100.00
50065;BME280;64524;47.848;-122.338;2022-12-18T02:33:24;101388.77;;;4.03;100.00
50065;BME280;64524;47.848;-122.338;2022-12-18T02:35:54;101392.79;;;4.06;100.00
50065;BME280;64524;47.848;-122.338;2022-12-18T02:38:25;101398.16;;;4.06;100.00
50065;BME280;64524;47.848;-122.338;2022-12-18T02:40:54;101404.50;;;4.06;100.00
50065;BME280;64524;47.848;-122.338;2022-12-18T02:43:24;101404.21;;;4.03;100.00
50065;BME280;64524;47.848;-122.338;2022-12-18T02:45:56;101404.94;;;4.01;100.00
50065;BME280;64524;47.848;-122.338;2022-12-18T02:48:30;101401.08;;;4.03;100.00
50065;BME280;64524;47.848;-122.338;2022-12-18T02:54:09;101399.64;;;4.01;100.00
50065;BME280;64524;47.848;-122.338;2022-12-18T02:56:46;101397.04;;;4.00;100.00
50065;BME280;64524;47.848;-122.338;2022-12-18T02:59:25;101392.10;;;3.98;100.00
50065;BME280;64524;47.848;-122.338;2022-12-18T03:02:17;101389.94;;;3.99;100.00
50065;BME280;64524;47.848;-122.338;2022-12-18T03:07:39;101393.59;;;4.01;100.00
50065;BME280;64524;47.848;-122.338;2022-12-18T03:10:14;101388.36;;;4.02;100.00
50065;BME280;64524;47.848;-122.338;2022-12-18T03:13:08;101382.21;;;4.03;100.00
50065;BME280;64524;47.848;-122.338;2022-12-18T03:15:38;101385.10;;;4.02;100.00
50065;BME280;64524;47.848;-122.338;2022-12-18T03:18:25;101383.98;;;4.04;100.00
50065;BME280;64524;47.848;-122.338;2022-12-18T03:20:58;101383.56;;;4.06;100.00
50065;BME280;64524;47.848;-122.338;2022-12-18T03:23:32;101382.79;;;4.08;100.00
50065;BME280;64524;47.848;-122.338;2022-12-18T03:26:05;101383.59;;;4.10;100.00
50065;BME280;64524;47.848;-122.338;2022-12-18T03:28:42;101382.05;;;4.13;100.00
50065;BME280;64524;47.848;-122.338;2022-12-18T03:31:13;101375.86;;;4.16;100.00
50065;BME280;64524;47.848;-122.338;2022-12-18T03:33:51;101371.55;;;4.20;100.00
50065;BME280;64524;47.848;-122.338;2022-12-18T03:36:19;101366.89;;;4.22;100.00
50065;BME280;64524;47.848;-122.338;2022-12-18T03:38:48;101368.52;;;4.24;100.00
50065;BME280;64524;47.848;-122.338;2022-12-18T03:47:10;101360.77;;;4.28;100.00
50065;BME280;64524;47.848;-122.338;2022-12-18T03:52:18;101356.69;;;4.32;100.00
50065;BME280;64524;47.848;-122.338;2022-12-18T03:54:49;101360.48;;;4.33;100.00
50065;BME280;64524;47.848;-122.338;2022-12-18T03:57:26;101357.94;;;4.33;100.00
50065;BME280;64524;47.848;-122.338;2022-12-18T04:00:13;101362.29;;;4.34;100.00
50065;BME280;64524;47.848;-122.338;2022-12-18T04:02:54;101363.87;;;4.35;100.00
50065;BME280;64524;47.848;-122.338;2022-12-18T04:05:43;101362.38;;;4.36;100.00
50065;BME280;64524;47.848;-122.338;2022-12-18T04:08:14;101366.48;;;4.36;100.00
50065;BME280;64524;47.848;-122.338;2022-12-18T04:10:43;101363.59;;;4.36;100.00
50065;BME280;64524;47.848;-122.338;2022-12-18T04:13:12;101364.70;;;4.38;100.00
50065;BME280;64524;47.848;-122.338;2022-12-18T04:15:43;101364.77;;;4.40;100.00
50065;BME280;64524;47.848;-122.338;2022-12-18T04:18:14;101364.52;;;4.41;100.00
50065;BME280;64524;47.848;-122.338;2022-12-18T04:20:46;101366.02;;;4.44;100.00
50065;BME280;64524;47.848;-122.338;2022-12-18T04:23:18;101363.88;;;4.47;100.00
50065;BME280;64524;47.848;-122.338;2022-12-18T04:25:47;101369.80;;;4.48;100.00
50065;BME280;64524;47.848;-122.338;2022-12-18T04:28:18;101364.06;;;4.50;100.00
50065;BME280;64524;47.848;-122.338;2022-12-18T04:30:47;101365.52;;;4.52;100.00
50065;BME280;64524;47.848;-122.338;2022-12-18T04:33:17;101367.96;;;4.53;100.00
50065;BME280;64524;47.848;-122.338;2022-12-18T04:35:46;101371.11;;;4.54;100.00
50065;BME280;64524;47.848;-122.338;2022-12-18T04:38:14;101373.17;;;4.54;100.00
50065;BME280;64524;47.848;-122.338;2022-12-18T04:40:43;101372.39;;;4.56;100.00
50065;BME280;64524;47.848;-122.338;2022-12-18T04:43:11;101371.90;;;4.56;100.00
50065;BME280;64524;47.848;-122.338;2022-12-18T04:45:40;101369.69;;;4.57;100.00
50065;BME280;64524;47.848;-122.338;2022-12-18T04:48:12;101370.27;;;4.58;100.00
50065;BME280;64524;47.848;-122.338;2022-12-18T04:50:47;101362.59;;;4.59;100.00
50065;BME280;64524;47.848;-122.338;2022-12-18T04:53:15;101362.11;;;4.60;100.00
50065;BME280;64524;47.848;-122.338;2022-12-18T04:55:47;101357.23;;;4.62;100.00
50065;BME280;64524;47.848;-122.338;2022-12-18T04:58:16;101355.55;;;4.63;100.00
50065;BME280;64524;47.848;-122.338;2022-12-18T05:00:44;101359.17;;;4.64;100.00
50065;BME280;64524;47.848;-122.338;2022-12-18T05:03:27;101356.17;;;4.65;100.00
50065;BME280;64524;47.848;-122.338;2022-12-18T05:05:56;101353.48;;;4.67;100.00
50065;BME280;64524;47.848;-122.338;2022-12-18T05:08:25;101350.30;;;4.68;100.00
50065;BME280;64524;47.848;-122.338;2022-12-18T05:11:05;101348.77;;;4.68;100.00
50065;BME280;64524;47.848;-122.338;2022-12-18T05:13:40;101349.98;;;4.68;100.00
50065;BME280;64524;47.848;-122.338;2022-12-18T05:16:12;101349.45;;;4.68;100.00
50065;BME280;64524;47.848;-122.338;2022-12-18T05:18:41;101350.66;;;4.69;100.00
50065;BME280;64524;47.848;-122.338;2022-12-18T05:21:18;101350.67;;;4.69;100.00
50065;BME280;64524;47.848;-122.338;2022-12-18T05:23:46;101353.50;;;4.67;100.00
50065;BME280;64524;47.848;-122.338;2022-12-18T05:26:17;101352.60;;;4.66;100.00
50065;BME280;64524;47.848;-122.338;2022-12-18T05:28:46;101351.34;;;4.65;100.00
50065;BME280;64524;47.848;-122.338;2022-12-18T05:31:20;101350.77;;;4.64;100.00
50065;BME280;64524;47.848;-122.338;2022-12-18T05:33:49;101347.83;;;4.63;100.00
50065;BME280;64524;47.848;-122.338;2022-12-18T05:36:18;101344.52;;;4.61;100.00
50065;BME280;64524;47.848;-122.338;2022-12-18T05:38:49;101344.77;;;4.60;100.00
50065;BME280;64524;47.848;-122.338;2022-12-18T05:41:17;101342.03;;;4.59;100.00
50065;BME280;64524;47.848;-122.338;2022-12-18T05:43:49;101340.98;;;4.59;100.00
50065;BME280;64524;47.848;-122.338;2022-12-18T05:46:18;101339.52;;;4.57;100.00
50065;BME280;64524;47.848;-122.338;2022-12-18T05:48:47;101342.23;;;4.57;100.00
50065;BME280;64524;47.848;-122.338;2022-12-18T05:51:21;101334.20;;;4.57;100.00
50065;BME280;64524;47.848;-122.338;2022-12-18T05:53:53;101332.81;;;4.57;100.00
50065;BME280;64524;47.848;-122.338;2022-12-18T05:56:22;101328.21;;;4.58;100.00
50065;BME280;64524;47.848;-122.338;2022-12-18T05:58:52;101328.55;;;4.58;100.00
50065;BME280;64524;47.848;-122.338;2022-12-18T06:01:24;101330.27;;;4.58;100.00
50065;BME280;64524;47.848;-122.338;2022-12-18T06:03:54;101331.40;;;4.56;100.00
50065;BME280;64524;47.848;-122.338;2022-12-18T06:06:27;101332.22;;;4.55;100.00
50065;BME280;64524;47.848;-122.338;2022-12-18T06:08:57;101333.69;;;4.54;100.00
50065;BME280;64524;47.848;-122.338;2022-12-18T06:11:26;101327.83;;;4.53;100.00
50065;BME280;64524;47.848;-122.338;2022-12-18T06:13:56;101327.27;;;4.52;100.00
50065;BME280;64524;47.848;-122.338;2022-12-18T06:16:27;101330.67;;;4.51;100.00
50065;BME280;64524;47.848;-122.338;2022-12-18T06:19:00;101332.52;;;4.51;100.00
50065;BME280;64524;47.848;-122.338;2022-12-18T06:21:34;101331.18;;;4.51;100.00
50065;BME280;64524;47.848;-122.338;2022-12-18T06:24:08;101333.38;;;4.51;100.00
50065;BME280;64524;47.848;-122.338;2022-12-18T06:26:39;101329.96;;;4.51;100.00
50065;BME280;64524;47.848;-122.338;2022-12-18T06:29:11;101326.63;;;4.50;100.00
50065;BME280;64524;47.848;-122.338;2022-12-18T06:31:39;101325.54;;;4.48;100.00
50065;BME280;64524;47.848;-122.338;2022-12-18T06:34:12;101328.19;;;4.47;100.00
50065;BME280;64524;47.848;-122.338;2022-12-18T06:36:40;101330.84;;;4.44;100.00
50065;BME280;64524;47.848;-122.338;2022-12-18T06:39:09;101336.56;;;4.42;100.00
50065;BME280;64524;47.848;-122.338;2022-12-18T06:41:41;101330.76;;;4.42;100.00
50065;BME280;64524;47.848;-122.338;2022-12-18T06:44:09;101330.20;;;4.41;100.00
50065;BME280;64524;47.848;-122.338;2022-12-18T06:46:38;101329.63;;;4.40;100.00
50065;BME280;64524;47.848;-122.338;2022-12-18T06:49:10;101326.85;;;4.39;100.00
50065;BME280;64524;47.848;-122.338;2022-12-18T06:51:41;101328.52;;;4.38;100.00
50065;BME280;64524;47.848;-122.338;2022-12-18T06:54:10;101328.59;;;4.36;100.00
50065;BME280;64524;47.848;-122.338;2022-12-18T06:56:39;101325.27;;;4.35;100.00
50065;BME280;64524;47.848;-122.338;2022-12-18T06:59:10;101325.66;;;4.32;100.00
50065;BME280;64524;47.848;-122.338;2022-12-18T07:01:38;101327.51;;;4.31;100.00
50065;BME280;64524;47.848;-122.338;2022-12-18T07:04:07;101326.92;;;4.30;100.00
50065;BME280;64524;47.848;-122.338;2022-12-18T07:06:37;101326.55;;;4.29;100.00
50065;BME280;64524;47.848;-122.338;2022-12-18T07:09:05;101328.55;;;4.28;100.00
50065;BME280;64524;47.848;-122.338;2022-12-18T07:11:36;101329.07;;;4.25;100.00
50065;BME280;64524;47.848;-122.338;2022-12-18T07:14:07;101329.31;;;4.22;100.00
50065;BME280;64524;47.848;-122.338;2022-12-18T07:16:36;101336.30;;;4.21;100.00
50065;BME280;64524;47.848;-122.338;2022-12-18T07:19:10;101336.91;;;4.20;100.00
50065;BME280;64524;47.848;-122.338;2022-12-18T07:21:42;101339.80;;;4.19;100.00
50065;BME280;64524;47.848;-122.338;2022-12-18T07:24:11;101343.69;;;4.18;100.00
50065;BME280;64524;47.848;-122.338;2022-12-18T07:26:40;101342.63;;;4.14;100.00
50065;BME280;64524;47.848;-122.338;2022-12-18T07:29:08;101345.27;;;4.12;100.00
50065;BME280;64524;47.848;-122.338;2022-12-18T07:31:40;101349.73;;;4.12;100.00
50065;BME280;64524;47.848;-122.338;2022-12-18T07:34:15;101344.59;;;4.12;100.00
50065;BME280;64524;47.848;-122.338;2022-12-18T07:36:46;101342.94;;;4.13;100.00
50065;BME280;64524;47.848;-122.338;2022-12-18T07:39:18;101344.19;;;4.14;100.00
50065;BME280;64524;47.848;-122.338;2022-12-18T07:41:46;101341.88;;;4.16;100.00
50065;BME280;64524;47.848;-122.338;2022-12-18T07:44:35;101342.70;;;4.15;100.00
50065;BME280;64524;47.848;-122.338;2022-12-18T07:47:06;101338.60;;;4.16;100.00
50065;BME280;64524;47.848;-122.338;2022-12-18T07:49:38;101340.27;;;4.15;100.00
50065;BME280;64524;47.848;-122.338;2022-12-18T07:52:06;101339.02;;;4.13;100.00
50065;BME280;64524;47.848;-122.338;2022-12-18T07:54:39;101343.67;;;4.14;100.00
50065;BME280;64524;47.848;-122.338;2022-12-18T07:57:08;101345.91;;;4.14;100.00
50065;BME280;64524;47.848;-122.338;2022-12-18T07:59:56;101341.15;;;4.15;100.00
50065;BME280;64524;47.848;-122.338;2022-12-18T08:02:25;101344.95;;;4.16;100.00
50065;BME280;64524;47.848;-122.338;2022-12-18T08:04:54;101346.62;;;4.15;100.00
50065;BME280;64524;47.848;-122.338;2022-12-18T08:07:23;101347.64;;;4.15;100.00
50065;BME280;64524;47.848;-122.338;2022-12-18T08:09:53;101351.46;;;4.16;100.00
50065;BME280;64524;47.848;-122.338;2022-12-18T08:12:21;101352.07;;;4.18;100.00
50065;BME280;64524;47.848;-122.338;2022-12-18T08:14:50;101347.35;;;4.19;100.00
50065;BME280;64524;47.848;-122.338;2022-12-18T08:17:19;101344.67;;;4.21;100.00
50065;BME280;64524;47.848;-122.338;2022-12-18T08:19:48;101345.23;;;4.22;100.00
50065;BME280;64524;47.848;-122.338;2022-12-18T08:22:20;101344.70;;;4.22;100.00
50065;BME280;64524;47.848;-122.338;2022-12-18T08:24:48;101343.34;;;4.22;100.00
50065;BME280;64524;47.848;-122.338;2022-12-18T08:27:16;101345.95;;;4.22;100.00
50065;BME280;64524;47.848;-122.338;2022-12-18T08:30:01;101344.45;;;4.23;100.00
50065;BME280;64524;47.848;-122.338;2022-12-18T08:32:31;101344.41;;;4.26;100.00
50065;BME280;64524;47.848;-122.338;2022-12-18T08:35:01;101344.52;;;4.32;100.00
50065;BME280;64524;47.848;-122.338;2022-12-18T08:37:29;101342.67;;;4.37;100.00
50065;BME280;64524;47.848;-122.338;2022-12-18T08:39:57;101347.67;;;4.41;100.00
50065;BME280;64524;47.848;-122.338;2022-12-18T08:42:26;101348.89;;;4.45;100.00
50065;BME280;64524;47.848;-122.338;2022-12-18T08:45:18;101346.65;;;4.48;100.00
50065;BME280;64524;47.848;-122.338;2022-12-18T08:47:49;101342.17;;;4.52;100.00
50065;BME280;64524;47.848;-122.338;2022-12-18T08:50:18;101335.63;;;4.55;100.00
50065;BME280;64524;47.848;-122.338;2022-12-18T08:53:16;101336.83;;;4.59;100.00
50065;BME280;64524;47.848;-122.338;2022-12-18T08:55:50;101328.73;;;4.62;100.00
50065;BME280;64524;47.848;-122.338;2022-12-18T08:58:45;101328.98;;;4.67;100.00
50065;BME280;64524;47.848;-122.338;2022-12-18T09:01:21;101325.14;;;4.70;100.00
50065;BME280;64524;47.848;-122.338;2022-12-18T09:03:50;101329.39;;;4.73;100.00
50065;BME280;64524;47.848;-122.338;2022-12-18T09:06:20;101325.16;;;4.74;100.00
50065;BME280;64524;47.848;-122.338;2022-12-18T09:08:49;101320.33;;;4.77;100.00
50065;BME280;64524;47.848;-122.338;2022-12-18T09:11:26;101323.02;;;4.79;100.00
50065;BME280;64524;47.848;-122.338;2022-12-18T09:13:55;101319.63;;;4.80;100.00
50065;BME280;64524;47.848;-122.338;2022-12-18T09:16:25;101320.46;;;4.80;100.00
50065;BME280;64524;47.848;-122.338;2022-12-18T09:18:59;101317.65;;;4.82;100.00
50065;BME280;64524;47.848;-122.338;2022-12-18T09:21:31;101317.50;;;4.83;100.00
50065;BME280;64524;47.848;-122.338;2022-12-18T09:24:08;101315.95;;;4.83;100.00
50065;BME280;64524;47.848;-122.338;2022-12-18T09:26:41;101318.14;;;4.82;100.00
50065;BME280;64524;47.848;-122.338;2022-12-18T09:29:16;101320.39;;;4.82;100.00
50065;BME280;64524;47.848;-122.338;2022-12-18T09:31:47;101315.44;;;4.83;100.00
50065;BME280;64524;47.848;-122.338;2022-12-18T09:34:17;101312.12;;;4.81;100.00
50065;BME280;64524;47.848;-122.338;2022-12-18T09:37:11;101311.45;;;4.82;100.00
50065;BME280;64524;47.848;-122.338;2022-12-18T09:39:40;101312.14;;;4.82;100.00
50065;BME280;64524;47.848;-122.338;2022-12-18T09:42:35;101314.36;;;4.82;100.00
50065;BME280;64524;47.848;-122.338;2022-12-18T09:45:27;101312.70;;;4.83;100.00
50065;BME280;64524;47.848;-122.338;2022-12-18T09:47:58;101312.70;;;4.83;100.00
50065;BME280;64524;47.848;-122.338;2022-12-18T09:50:38;101306.70;;;4.84;100.00
50065;BME280;64524;47.848;-122.338;2022-12-18T09:53:15;101304.70;;;4.84;100.00
50065;BME280;64524;47.848;-122.338;2022-12-18T09:55:46;101303.53;;;4.86;100.00
50065;BME280;64524;47.848;-122.338;2022-12-18T10:01:01;101298.33;;;4.85;100.00
50065;BME280;64524;47.848;-122.338;2022-12-18T10:03:29;101291.21;;;4.83;100.00
50065;BME280;64524;47.848;-122.338;2022-12-18T10:09:07;101291.96;;;4.79;100.00
50065;BME280;64524;47.848;-122.338;2022-12-18T10:11:55;101292.15;;;4.76;100.00
50065;BME280;64524;47.848;-122.338;2022-12-18T10:14:34;101285.71;;;4.74;100.00
50065;BME280;64524;47.848;-122.338;2022-12-18T10:17:34;101285.86;;;4.73;100.00
50065;BME280;64524;47.848;-122.338;2022-12-18T10:20:45;101291.16;;;4.73;100.00
50065;BME280;64524;47.848;-122.338;2022-12-18T10:23:38;101291.98;;;4.72;100.00
50065;BME280;64524;47.848;-122.338;2022-12-18T10:26:14;101292.81;;;4.72;100.00
50065;BME280;64524;47.848;-122.338;2022-12-18T10:28:44;101291.52;;;4.70;100.00
50065;BME280;64524;47.848;-122.338;2022-12-18T10:31:23;101292.67;;;4.69;100.00
50065;BME280;64524;47.848;-122.338;2022-12-18T10:33:54;101292.33;;;4.69;100.00
50065;BME280;64524;47.848;-122.338;2022-12-18T10:36:27;101288.25;;;4.70;100.00
50065;BME280;64524;47.848;-122.338;2022-12-18T10:39:19;101288.41;;;4.70;100.00
50065;BME280;64524;47.848;-122.338;2022-12-18T10:41:50;101290.73;;;4.71;100.00
50065;BME280;64524;47.848;-122.338;2022-12-18T10:44:22;101289.38;;;4.72;100.00
50065;BME280;64524;47.848;-122.338;2022-12-18T10:46:54;101295.71;;;4.72;100.00
50065;BME280;64524;47.848;-122.338;2022-12-18T10:49:32;101294.89;;;4.72;100.00
50065;BME280;64524;47.848;-122.338;2022-12-18T10:52:24;101293.55;;;4.73;100.00
50065;BME280;64524;47.848;-122.338;2022-12-18T10:57:39;101289.28;;;4.74;100.00
50065;BME280;64524;47.848;-122.338;2022-12-18T11:02:51;101286.54;;;4.66;100.00
50065;BME280;64524;47.848;-122.338;2022-12-18T11:05:33;101284.34;;;4.63;100.00
50065;BME280;64524;47.848;-122.338;2022-12-18T11:08:04;101282.79;;;4.59;100.00
50065;BME280;64524;47.848;-122.338;2022-12-18T11:10:39;101278.74;;;4.57;100.00
50065;BME280;64524;47.848;-122.338;2022-12-18T11:13:29;101278.23;;;4.57;100.00
50065;BME280;64524;47.848;-122.338;2022-12-18T11:15:59;101278.35;;;4.56;100.00
50065;BME280;64524;47.848;-122.338;2022-12-18T11:18:31;101280.70;;;4.55;100.00
50065;BME280;64524;47.848;-122.338;2022-12-18T11:21:05;101280.59;;;4.52;100.00
50065;BME280;64524;47.848;-122.338;2022-12-18T11:23:53;101276.90;;;4.50;100.00
50065;BME280;64524;47.848;-122.338;2022-12-18T11:26:34;101272.41;;;4.50;100.00
50065;BME280;64524;47.848;-122.338;2022-12-18T11:29:15;101267.31;;;4.47;100.00
50065;BME280;64524;47.848;-122.338;2022-12-18T11:31:46;101257.88;;;4.43;100.00
50065;BME280;64524;47.848;-122.338;2022-12-18T11:36:59;101249.24;;;4.38;100.00
50065;BME280;64524;47.848;-122.338;2022-12-18T11:39:37;101242.92;;;4.35;100.00
50065;BME280;64524;47.848;-122.338;2022-12-18T11:42:28;101235.95;;;4.32;100.00
50065;BME280;64524;47.848;-122.338;2022-12-18T11:47:41;101226.19;;;4.29;100.00
50065;BME280;64524;47.848;-122.338;2022-12-18T11:53:12;101223.85;;;4.26;100.00
50065;BME280;64524;47.848;-122.338;2022-12-18T11:56:05;101222.40;;;4.25;100.00
50065;BME280;64524;47.848;-122.338;2022-12-18T12:01:55;101216.39;;;4.21;100.00
50065;BME280;64524;47.848;-122.338;2022-12-18T12:04:42;101213.02;;;4.19;100.00
50065;BME280;64524;47.848;-122.338;2022-12-18T12:10:18;101212.83;;;4.14;100.00
50065;BME280;64524;47.848;-122.338;2022-12-18T12:21:38;101204.51;;;3.90;100.00
50065;BME280;64524;47.848;-122.338;2022-12-18T12:24:38;101206.15;;;3.84;100.00
50065;BME280;64524;47.848;-122.338;2022-12-18T12:27:19;101203.08;;;3.81;100.00
50065;BME280;64524;47.848;-122.338;2022-12-18T12:30:21;101203.15;;;3.79;100.00
50065;BME280;64524;47.848;-122.338;2022-12-18T12:35:37;101207.34;;;3.77;100.00
50065;BME280;64524;47.848;-122.338;2022-12-18T12:38:14;101201.81;;;3.76;100.00
50065;BME280;64524;47.848;-122.338;2022-12-18T12:41:06;101203.33;;;3.72;100.00
50065;BME280;64524;47.848;-122.338;2022-12-18T12:44:01;101205.05;;;3.68;100.00
50065;BME280;64524;47.848;-122.338;2022-12-18T12:46:37;101205.70;;;3.64;100.00
50065;BME280;64524;47.848;-122.338;2022-12-18T12:49:16;101204.73;;;3.58;100.00
50065;BME280;64524;47.848;-122.338;2022-12-18T12:55:02;101204.53;;;3.54;100.00
50065;BME280;64524;47.848;-122.338;2022-12-18T12:57:45;101204.98;;;3.53;100.00
50065;BME280;64524;47.848;-122.338;2022-12-18T13:00:19;101200.01;;;3.52;100.00
50065;BME280;64524;47.848;-122.338;2022-12-18T13:03:03;101198.89;;;3.54;100.00
50065;BME280;64524;47.848;-122.338;2022-12-18T13:05:44;101191.73;;;3.54;100.00
50065;BME280;64524;47.848;-122.338;2022-12-18T13:08:27;101192.52;;;3.57;100.00
50065;BME280;64524;47.848;-122.338;2022-12-18T13:11:01;101193.88;;;3.60;100.00
50065;BME280;64524;47.848;-122.338;2022-12-18T13:13:55;101189.94;;;3.64;100.00
50065;BME280;64524;47.848;-122.338;2022-12-18T13:16:25;101188.55;;;3.68;100.00
50065;BME280;64524;47.848;-122.338;2022-12-18T13:18:58;101187.70;;;3.71;100.00
50065;BME280;64524;47.848;-122.338;2022-12-18T13:21:32;101188.77;;;3.75;100.00
50065;BME280;64524;47.848;-122.338;2022-12-18T13:24:23;101186.51;;;3.78;100.00
50065;BME280;64524;47.848;-122.338;2022-12-18T13:26:53;101183.56;;;3.81;100.00
50065;BME280;64524;47.848;-122.338;2022-12-18T13:29:42;101180.09;;;3.84;100.00
50065;BME280;64524;47.848;-122.338;2022-12-18T13:32:23;101172.34;;;3.87;100.00
50065;BME280;64524;47.848;-122.338;2022-12-18T13:37:54;101173.12;;;3.93;100.00
50065;BME280;64524;47.848;-122.338;2022-12-18T13:43:23;101171.42;;;3.93;100.00
50065;BME280;64524;47.848;-122.338;2022-12-18T13:48:37;101170.48;;;3.95;100.00
50065;BME280;64524;47.848;-122.338;2022-12-18T13:51:17;101171.02;;;3.96;100.00
50065;BME280;64524;47.848;-122.338;2022-12-18T13:53:57;101172.11;;;3.97;100.00
50065;BME280;64524;47.848;-122.338;2022-12-18T13:56:29;101169.54;;;4.01;100.00
50065;BME280;64524;47.848;-122.338;2022-12-18T14:01:42;101171.17;;;4.07;100.00
50065;BME280;64524;47.848;-122.338;2022-12-18T14:09:30;101168.81;;;4.12;100.00
50065;BME280;64524;47.848;-122.338;2022-12-18T14:12:05;101165.58;;;4.12;100.00
50065;BME280;64524;47.848;-122.338;2022-12-18T14:14:56;101159.42;;;4.12;100.00